sensor_id;sensor_type;location;lat;lon;timestamp;pressure;altitude;pressure_sealevel;temperature
67599;BMP280;62026;39.230;9.122;2023-02-28T00:01:29;100493.03;;;13.03
67599;BMP280;62026;39.230;9.122;2023-02-28T00:03:56;100487.59;;;12.98
67599;BMP280;62026;39.230;9.122;2023-02-28T00:06:22;100486.44;;;13.06
67599;BMP280;62026;39.230;9.122;2023-02-28T00:08:50;100487.75;;;13.03
67599;BMP280;62026;39.230;9.122;2023-02-28T00:11:16;100491.50;;;13.07
67599;BMP280;62026;39.230;9.122;2023-02-28T00:13:46;100492.13;;;13.10
67599;BMP280;62026;39.230;9.122;2023-02-28T00:16:19;100504.75;;;13.07
67599;BMP280;62026;39.230;9.122;2023-02-28T00:18:46;100507.19;;;13.09
67599;BMP280;62026;39.230;9.122;2023-02-28T00:21:13;100509.59;;;12.99
67599;BMP280;62026;39.230;9.122;2023-02-28T00:23:39;100519.38;;;12.87
67599;BMP280;62026;39.230;9.122;2023-02-28T00:26:06;100529.47;;;12.78
67599;BMP280;62026;39.230;9.122;2023-02-28T00:28:32;100555.53;;;12.81
67599;BMP280;62026;39.230;9.122;2023-02-28T00:30:59;100533.63;;;12.74
67599;BMP280;62026;39.230;9.122;2023-02-28T00:33:27;100545.69;;;12.70
67599;BMP280;62026;39.230;9.122;2023-02-28T00:36:07;100545.25;;;12.73
67599;BMP280;62026;39.230;9.122;2023-02-28T00:38:36;100550.19;;;12.69
67599;BMP280;62026;39.230;9.122;2023-02-28T00:41:02;100560.56;;;12.71
67599;BMP280;62026;39.230;9.122;2023-02-28T00:43:32;100581.97;;;12.69
67599;BMP280;62026;39.230;9.122;2023-02-28T00:45:58;100587.22;;;12.58
67599;BMP280;62026;39.230;9.122;2023-02-28T00:48:24;100574.41;;;12.55
67599;BMP280;62026;39.230;9.122;2023-02-28T00:50:51;100576.06;;;12.56
67599;BMP280;62026;39.230;9.122;2023-02-28T00:53:17;100586.66;;;12.56
67599;BMP280;62026;39.230;9.122;2023-02-28T00:55:43;100576.16;;;12.49
67599;BMP280;62026;39.230;9.122;2023-02-28T00:58:10;100582.47;;;12.48
67599;BMP280;62026;39.230;9.122;2023-02-28T01:00:36;100579.66;;;12.43
67599;BMP280;62026;39.230;9.122;2023-02-28T01:03:02;100579.91;;;12.42
67599;BMP280;62026;39.230;9.122;2023-02-28T01:05:28;100591.03;;;12.44
67599;BMP280;62026;39.230;9.122;2023-02-28T01:07:54;100579.28;;;12.39
67599;BMP280;62026;39.230;9.122;2023-02-28T01:10:20;100568.94;;;12.38
67599;BMP280;62026;39.230;9.122;2023-02-28T01:12:46;100577.81;;;12.44
67599;BMP280;62026;39.230;9.122;2023-02-28T01:15:15;100562.00;;;12.37
67599;BMP280;62026;39.230;9.122;2023-02-28T01:17:41;100558.13;;;12.39
67599;BMP280;62026;39.230;9.122;2023-02-28T01:20:08;100572.03;;;12.35
67599;BMP280;62026;39.230;9.122;2023-02-28T01:22:35;100579.59;;;12.31
67599;BMP280;62026;39.230;9.122;2023-02-28T01:25:01;100564.00;;;12.23
67599;BMP280;62026;39.230;9.122;2023-02-28T01:27:27;100568.97;;;12.20
67599;BMP280;62026;39.230;9.122;2023-02-28T01:29:54;100566.44;;;12.25
67599;BMP280;62026;39.230;9.122;2023-02-28T01:32:20;100563.47;;;12.21
67599;BMP280;62026;39.230;9.122;2023-02-28T01:34:46;100561.84;;;12.20
67599;BMP280;62026;39.230;9.122;2023-02-28T01:37:12;100559.81;;;12.16
67599;BMP280;62026;39.230;9.122;2023-02-28T01:39:43;100561.09;;;12.13
67599;BMP280;62026;39.230;9.122;2023-02-28T01:42:12;100554.63;;;12.09
67599;BMP280;62026;39.230;9.122;2023-02-28T01:47:50;100558.16;;;12.03
67599;BMP280;62026;39.230;9.122;2023-02-28T01:50:27;100545.94;;;12.02
67599;BMP280;62026;39.230;9.122;2023-02-28T01:52:57;100549.28;;;11.97
67599;BMP280;62026;39.230;9.122;2023-02-28T01:55:27;100569.41;;;11.98
67599;BMP280;62026;39.230;9.122;2023-02-28T01:58:00;100564.34;;;11.97
67599;BMP280;62026;39.230;9.122;2023-02-28T02:00:29;100565.00;;;11.92
67599;BMP280;62026;39.230;9.122;2023-02-28T02:03:00;100567.63;;;11.92
67599;BMP280;62026;39.230;9.122;2023-02-28T02:05:30;100552.00;;;11.91
67599;BMP280;62026;39.230;9.122;2023-02-28T02:08:28;100558.09;;;11.91
67599;BMP280;62026;39.230;9.122;2023-02-28T02:10:57;100555.88;;;11.88
67599;BMP280;62026;39.230;9.122;2023-02-28T02:13:58;100541.72;;;11.83
67599;BMP280;62026;39.230;9.122;2023-02-28T02:16:45;100552.72;;;11.80
67599;BMP280;62026;39.230;9.122;2023-02-28T02:32:02;100560.06;;;11.78
67599;BMP280;62026;39.230;9.122;2023-02-28T02:42:40;100539.56;;;11.73
67599;BMP280;62026;39.230;9.122;2023-02-28T02:45:25;100548.16;;;11.68
67599;BMP280;62026;39.230;9.122;2023-02-28T02:47:56;100553.00;;;11.71
67599;BMP280;62026;39.230;9.122;2023-02-28T02:50:35;100555.06;;;11.69
67599;BMP280;62026;39.230;9.122;2023-02-28T02:53:05;100545.78;;;11.60
67599;BMP280;62026;39.230;9.122;2023-02-28T02:55:38;100547.19;;;11.63
67599;BMP280;62026;39.230;9.122;2023-02-28T02:58:11;100543.75;;;11.62
67599;BMP280;62026;39.230;9.122;2023-02-28T03:00:47;100541.91;;;11.63
67599;BMP280;62026;39.230;9.122;2023-02-28T03:03:17;100538.88;;;11.59
67599;BMP280;62026;39.230;9.122;2023-02-28T03:05:49;100523.84;;;11.60
67599;BMP280;62026;39.230;9.122;2023-02-28T03:08:16;100523.03;;;11.59
67599;BMP280;62026;39.230;9.122;2023-02-28T03:10:46;100521.03;;;11.55
67599;BMP280;62026;39.230;9.122;2023-02-28T03:28:28;100516.84;;;11.47
67599;BMP280;62026;39.230;9.122;2023-02-28T03:31:03;100505.09;;;11.43
67599;BMP280;62026;39.230;9.122;2023-02-28T03:34:08;100515.28;;;11.39
67599;BMP280;62026;39.230;9.122;2023-02-28T03:36:41;100515.00;;;11.48
67599;BMP280;62026;39.230;9.122;2023-02-28T03:39:38;100525.22;;;11.44
67599;BMP280;62026;39.230;9.122;2023-02-28T03:42:15;100529.03;;;11.48
67599;BMP280;62026;39.230;9.122;2023-02-28T03:44:54;100528.06;;;11.42
67599;BMP280;62026;39.230;9.122;2023-02-28T03:47:29;100538.41;;;11.44
67599;BMP280;62026;39.230;9.122;2023-02-28T03:52:54;100550.44;;;11.40
67599;BMP280;62026;39.230;9.122;2023-02-28T03:55:32;100562.03;;;11.39
67599;BMP280;62026;39.230;9.122;2023-02-28T03:58:31;100565.50;;;11.39
67599;BMP280;62026;39.230;9.122;2023-02-28T04:01:14;100561.44;;;11.37
67599;BMP280;62026;39.230;9.122;2023-02-28T04:03:41;100567.97;;;11.34
67599;BMP280;62026;39.230;9.122;2023-02-28T04:06:15;100572.88;;;11.31
67599;BMP280;62026;39.230;9.122;2023-02-28T04:08:42;100575.69;;;11.36
67599;BMP280;62026;39.230;9.122;2023-02-28T04:13:54;100580.59;;;11.32
67599;BMP280;62026;39.230;9.122;2023-02-28T04:16:20;100585.06;;;11.32
67599;BMP280;62026;39.230;9.122;2023-02-28T04:18:46;100581.41;;;11.33
67599;BMP280;62026;39.230;9.122;2023-02-28T04:21:12;100589.75;;;11.30
67599;BMP280;62026;39.230;9.122;2023-02-28T04:23:39;100609.88;;;11.31
67599;BMP280;62026;39.230;9.122;2023-02-28T04:26:05;100613.53;;;11.30
67599;BMP280;62026;39.230;9.122;2023-02-28T04:28:33;100623.66;;;11.33
67599;BMP280;62026;39.230;9.122;2023-02-28T04:31:04;100630.63;;;11.27
67599;BMP280;62026;39.230;9.122;2023-02-28T04:33:32;100632.06;;;11.23
67599;BMP280;62026;39.230;9.122;2023-02-28T04:36:07;100643.63;;;11.29
67599;BMP280;62026;39.230;9.122;2023-02-28T04:38:38;100646.09;;;11.24
67599;BMP280;62026;39.230;9.122;2023-02-28T04:41:05;100647.31;;;11.21
67599;BMP280;62026;39.230;9.122;2023-02-28T04:43:31;100650.19;;;11.20
67599;BMP280;62026;39.230;9.122;2023-02-28T04:46:01;100654.66;;;11.19
67599;BMP280;62026;39.230;9.122;2023-02-28T04:48:31;100642.69;;;11.17
67599;BMP280;62026;39.230;9.122;2023-02-28T04:51:11;100627.69;;;11.10
67599;BMP280;62026;39.230;9.122;2023-02-28T04:53:39;100634.41;;;11.06
67599;BMP280;62026;39.230;9.122;2023-02-28T04:56:08;100624.63;;;11.14
67599;BMP280;62026;39.230;9.122;2023-02-28T04:58:34;100609.41;;;11.09
67599;BMP280;62026;39.230;9.122;2023-02-28T05:01:28;100610.44;;;11.08
67599;BMP280;62026;39.230;9.122;2023-02-28T05:03:58;100611.25;;;11.08
67599;BMP280;62026;39.230;9.122;2023-02-28T05:06:27;100589.94;;;11.03
67599;BMP280;62026;39.230;9.122;2023-02-28T05:08:54;100580.38;;;11.02
67599;BMP280;62026;39.230;9.122;2023-02-28T05:11:32;100581.25;;;10.96
67599;BMP280;62026;39.230;9.122;2023-02-28T05:14:14;100572.53;;;10.96
67599;BMP280;62026;39.230;9.122;2023-02-28T05:16:41;100586.31;;;10.98
67599;BMP280;62026;39.230;9.122;2023-02-28T05:19:07;100574.34;;;10.95
67599;BMP280;62026;39.230;9.122;2023-02-28T05:21:48;100566.25;;;10.90
67599;BMP280;62026;39.230;9.122;2023-02-28T05:24:15;100559.38;;;10.89
67599;BMP280;62026;39.230;9.122;2023-02-28T05:26:51;100566.84;;;10.92
67599;BMP280;62026;39.230;9.122;2023-02-28T05:29:18;100550.69;;;10.82
67599;BMP280;62026;39.230;9.122;2023-02-28T05:31:44;100551.28;;;10.84
67599;BMP280;62026;39.230;9.122;2023-02-28T05:34:11;100543.59;;;10.76
67599;BMP280;62026;39.230;9.122;2023-02-28T05:36:38;100552.19;;;10.65
67599;BMP280;62026;39.230;9.122;2023-02-28T05:39:08;100547.34;;;10.62
67599;BMP280;62026;39.230;9.122;2023-02-28T05:41:42;100547.28;;;10.75
67599;BMP280;62026;39.230;9.122;2023-02-28T05:44:09;100544.19;;;10.78
67599;BMP280;62026;39.230;9.122;2023-02-28T05:46:35;100544.19;;;10.78
67599;BMP280;62026;39.230;9.122;2023-02-28T05:49:01;100542.34;;;10.78
67599;BMP280;62026;39.230;9.122;2023-02-28T05:51:27;100561.81;;;10.84
67599;BMP280;62026;39.230;9.122;2023-02-28T05:53:53;100567.53;;;10.81
67599;BMP280;62026;39.230;9.122;2023-02-28T05:56:20;100561.88;;;10.77
67599;BMP280;62026;39.230;9.122;2023-02-28T05:58:46;100560.03;;;10.71
67599;BMP280;62026;39.230;9.122;2023-02-28T06:01:43;100535.47;;;10.71
67599;BMP280;62026;39.230;9.122;2023-02-28T06:04:19;100531.09;;;10.65
67599;BMP280;62026;39.230;9.122;2023-02-28T06:06:47;100526.00;;;10.63
67599;BMP280;62026;39.230;9.122;2023-02-28T06:09:14;100525.38;;;10.68
67599;BMP280;62026;39.230;9.122;2023-02-28T06:11:41;100529.25;;;10.65
67599;BMP280;62026;39.230;9.122;2023-02-28T06:14:14;100520.94;;;10.62
67599;BMP280;62026;39.230;9.122;2023-02-28T06:16:41;100520.56;;;10.58
67599;BMP280;62026;39.230;9.122;2023-02-28T06:19:09;100516.94;;;10.53
67599;BMP280;62026;39.230;9.122;2023-02-28T06:21:35;100525.88;;;10.52
67599;BMP280;62026;39.230;9.122;2023-02-28T06:24:02;100526.25;;;10.55
67599;BMP280;62026;39.230;9.122;2023-02-28T06:26:29;100517.31;;;10.56
67599;BMP280;62026;39.230;9.122;2023-02-28T06:28:55;100512.69;;;10.52
67599;BMP280;62026;39.230;9.122;2023-02-28T06:31:21;100520.59;;;10.52
67599;BMP280;62026;39.230;9.122;2023-02-28T06:33:49;100514.28;;;10.59
67599;BMP280;62026;39.230;9.122;2023-02-28T06:36:16;100524.22;;;10.57
67599;BMP280;62026;39.230;9.122;2023-02-28T06:38:43;100527.03;;;10.56
67599;BMP280;62026;39.230;9.122;2023-02-28T06:41:10;100534.53;;;10.65
67599;BMP280;62026;39.230;9.122;2023-02-28T06:43:41;100523.00;;;10.60
67599;BMP280;62026;39.230;9.122;2023-02-28T06:46:12;100521.41;;;10.52
67599;BMP280;62026;39.230;9.122;2023-02-28T06:48:40;100533.94;;;10.57
67599;BMP280;62026;39.230;9.122;2023-02-28T06:51:16;100534.72;;;10.64
67599;BMP280;62026;39.230;9.122;2023-02-28T06:53:43;100536.78;;;10.62
67599;BMP280;62026;39.230;9.122;2023-02-28T06:56:14;100540.09;;;10.51
67599;BMP280;62026;39.230;9.122;2023-02-28T06:58:40;100543.38;;;10.39
67599;BMP280;62026;39.230;9.122;2023-02-28T07:01:08;100550.72;;;10.24
67599;BMP280;62026;39.230;9.122;2023-02-28T07:03:35;100550.97;;;10.09
67599;BMP280;62026;39.230;9.122;2023-02-28T07:06:02;100542.25;;;10.09
67599;BMP280;62026;39.230;9.122;2023-02-28T07:08:29;100538.66;;;10.03
67599;BMP280;62026;39.230;9.122;2023-02-28T07:10:57;100540.66;;;10.08
67599;BMP280;62026;39.230;9.122;2023-02-28T07:13:24;100547.47;;;10.35
67599;BMP280;62026;39.230;9.122;2023-02-28T07:15:59;100540.94;;;10.44
67599;BMP280;62026;39.230;9.122;2023-02-28T07:18:26;100536.47;;;10.45
67599;BMP280;62026;39.230;9.122;2023-02-28T07:20:53;100529.94;;;10.48
67599;BMP280;62026;39.230;9.122;2023-02-28T07:23:19;100516.94;;;10.46
67599;BMP280;62026;39.230;9.122;2023-02-28T07:25:46;100525.09;;;10.44
67599;BMP280;62026;39.230;9.122;2023-02-28T07:28:13;100544.50;;;10.57
67599;BMP280;62026;39.230;9.122;2023-02-28T07:30:40;100546.50;;;10.68
67599;BMP280;62026;39.230;9.122;2023-02-28T07:33:07;100548.72;;;10.64
67599;BMP280;62026;39.230;9.122;2023-02-28T07:35:33;100553.81;;;10.66
67599;BMP280;62026;39.230;9.122;2023-02-28T07:38:00;100553.00;;;10.65
67599;BMP280;62026;39.230;9.122;2023-02-28T07:40:26;100552.19;;;10.65
67599;BMP280;62026;39.230;9.122;2023-02-28T07:42:52;100560.13;;;10.65
67599;BMP280;62026;39.230;9.122;2023-02-28T07:45:19;100568.44;;;10.62
67599;BMP280;62026;39.230;9.122;2023-02-28T07:47:45;100573.31;;;10.65
67599;BMP280;62026;39.230;9.122;2023-02-28T07:50:15;100575.69;;;10.73
67599;BMP280;62026;39.230;9.122;2023-02-28T07:52:42;100581.97;;;10.72
67599;BMP280;62026;39.230;9.122;2023-02-28T07:55:09;100570.84;;;10.70
67599;BMP280;62026;39.230;9.122;2023-02-28T07:57:36;100574.06;;;10.72
67599;BMP280;62026;39.230;9.122;2023-02-28T08:00:08;100575.53;;;10.68
67599;BMP280;62026;39.230;9.122;2023-02-28T08:02:39;100576.13;;;10.70
67599;BMP280;62026;39.230;9.122;2023-02-28T08:05:07;100580.97;;;10.73
67599;BMP280;62026;39.230;9.122;2023-02-28T08:07:33;100579.97;;;10.74
67599;BMP280;62026;39.230;9.122;2023-02-28T08:10:00;100587.03;;;10.80
67599;BMP280;62026;39.230;9.122;2023-02-28T08:12:26;100577.72;;;10.71
67599;BMP280;62026;39.230;9.122;2023-02-28T08:14:52;100582.75;;;10.79
67599;BMP280;62026;39.230;9.122;2023-02-28T08:17:18;100578.50;;;10.78
67599;BMP280;62026;39.230;9.122;2023-02-28T08:19:47;100580.19;;;10.66
67599;BMP280;62026;39.230;9.122;2023-02-28T08:22:13;100585.84;;;10.76
67599;BMP280;62026;39.230;9.122;2023-02-28T08:24:42;100580.59;;;10.63
67599;BMP280;62026;39.230;9.122;2023-02-28T08:27:09;100572.06;;;10.67
67599;BMP280;62026;39.230;9.122;2023-02-28T08:29:39;100564.38;;;10.66
67599;BMP280;62026;39.230;9.122;2023-02-28T08:32:06;100568.63;;;10.67
67599;BMP280;62026;39.230;9.122;2023-02-28T08:34:32;100571.88;;;10.69
67599;BMP280;62026;39.230;9.122;2023-02-28T08:36:59;100569.16;;;10.82
67599;BMP280;62026;39.230;9.122;2023-02-28T08:39:24;100561.09;;;10.70
67599;BMP280;62026;39.230;9.122;2023-02-28T08:41:51;100565.22;;;10.60
67599;BMP280;62026;39.230;9.122;2023-02-28T08:44:17;100565.16;;;10.73
67599;BMP280;62026;39.230;9.122;2023-02-28T08:46:42;100569.22;;;10.69
67599;BMP280;62026;39.230;9.122;2023-02-28T08:49:10;100573.50;;;10.63
67599;BMP280;62026;39.230;9.122;2023-02-28T08:51:38;100564.75;;;10.63
67599;BMP280;62026;39.230;9.122;2023-02-28T08:54:04;100576.56;;;10.60
67599;BMP280;62026;39.230;9.122;2023-02-28T08:56:30;100567.63;;;10.55
67599;BMP280;62026;39.230;9.122;2023-02-28T08:58:57;100568.84;;;10.65
67599;BMP280;62026;39.230;9.122;2023-02-28T09:01:27;100580.09;;;10.79
67599;BMP280;62026;39.230;9.122;2023-02-28T09:03:54;100578.97;;;10.68
67599;BMP280;62026;39.230;9.122;2023-02-28T09:06:23;100588.72;;;10.68
67599;BMP280;62026;39.230;9.122;2023-02-28T09:08:50;100590.81;;;10.53
67599;BMP280;62026;39.230;9.122;2023-02-28T09:11:17;100598.69;;;10.66
67599;BMP280;62026;39.230;9.122;2023-02-28T09:13:45;100602.47;;;10.76
67599;BMP280;62026;39.230;9.122;2023-02-28T09:16:14;100592.66;;;10.90
67599;BMP280;62026;39.230;9.122;2023-02-28T09:18:42;100599.91;;;11.01
67599;BMP280;62026;39.230;9.122;2023-02-28T09:21:12;100595.59;;;11.07
67599;BMP280;62026;39.230;9.122;2023-02-28T09:23:44;100600.06;;;11.06
67599;BMP280;62026;39.230;9.122;2023-02-28T09:28:45;100601.88;;;11.13
67599;BMP280;62026;39.230;9.122;2023-02-28T09:31:20;100603.13;;;11.03
67599;BMP280;62026;39.230;9.122;2023-02-28T09:33:52;100598.84;;;11.02
67599;BMP280;62026;39.230;9.122;2023-02-28T09:36:20;100601.56;;;10.96
67599;BMP280;62026;39.230;9.122;2023-02-28T09:38:46;100606.47;;;10.92
67599;BMP280;62026;39.230;9.122;2023-02-28T09:41:42;100605.59;;;10.98
67599;BMP280;62026;39.230;9.122;2023-02-28T09:44:36;100614.31;;;11.05
67599;BMP280;62026;39.230;9.122;2023-02-28T09:49:59;100606.97;;;11.07
67599;BMP280;62026;39.230;9.122;2023-02-28T09:52:30;100610.38;;;11.15
67599;BMP280;62026;39.230;9.122;2023-02-28T09:57:42;100621.72;;;11.22
67599;BMP280;62026;39.230;9.122;2023-02-28T10:00:24;100618.91;;;11.17
67599;BMP280;62026;39.230;9.122;2023-02-28T10:03:40;100619.50;;;11.19
67599;BMP280;62026;39.230;9.122;2023-02-28T10:06:28;100613.78;;;11.22
67599;BMP280;62026;39.230;9.122;2023-02-28T10:11:27;100618.38;;;11.33
67599;BMP280;62026;39.230;9.122;2023-02-28T10:14:21;100625.13;;;11.29
67599;BMP280;62026;39.230;9.122;2023-02-28T10:16:53;100624.09;;;11.30
67599;BMP280;62026;39.230;9.122;2023-02-28T10:19:45;100629.81;;;11.27
67599;BMP280;62026;39.230;9.122;2023-02-28T10:22:43;100622.31;;;11.24
67599;BMP280;62026;39.230;9.122;2023-02-28T10:25:26;100625.16;;;11.22
67599;BMP280;62026;39.230;9.122;2023-02-28T10:28:13;100621.72;;;11.22
67599;BMP280;62026;39.230;9.122;2023-02-28T10:30:48;100624.53;;;11.27
67599;BMP280;62026;39.230;9.122;2023-02-28T10:33:30;100622.06;;;11.32
67599;BMP280;62026;39.230;9.122;2023-02-28T10:35:58;100615.53;;;11.34
67599;BMP280;62026;39.230;9.122;2023-02-28T10:38:36;100610.47;;;11.33
67599;BMP280;62026;39.230;9.122;2023-02-28T10:41:12;100619.72;;;11.17
67599;BMP280;62026;39.230;9.122;2023-02-28T10:43:42;100622.34;;;11.17
67599;BMP280;62026;39.230;9.122;2023-02-28T10:48:42;100612.00;;;11.16
67599;BMP280;62026;39.230;9.122;2023-02-28T10:51:16;100598.63;;;11.10
67599;BMP280;62026;39.230;9.122;2023-02-28T11:01:49;100604.75;;;11.04
67599;BMP280;62026;39.230;9.122;2023-02-28T11:06:59;100587.94;;;10.99
67599;BMP280;62026;39.230;9.122;2023-02-28T11:09:39;100586.09;;;10.99
67599;BMP280;62026;39.230;9.122;2023-02-28T11:12:36;100580.06;;;10.92
67599;BMP280;62026;39.230;9.122;2023-02-28T11:15:26;100573.06;;;11.04
67599;BMP280;62026;39.230;9.122;2023-02-28T11:18:24;100564.38;;;10.97
67599;BMP280;62026;39.230;9.122;2023-02-28T11:20:55;100561.28;;;11.07
67599;BMP280;62026;39.230;9.122;2023-02-28T11:23:27;100558.47;;;11.02
67599;BMP280;62026;39.230;9.122;2023-02-28T11:26:00;100551.19;;;10.97
67599;BMP280;62026;39.230;9.122;2023-02-28T11:28:34;100549.13;;;10.99
67599;BMP280;62026;39.230;9.122;2023-02-28T11:36:15;100554.28;;;11.19
67599;BMP280;62026;39.230;9.122;2023-02-28T11:38:43;100555.41;;;11.30
67599;BMP280;62026;39.230;9.122;2023-02-28T11:47:01;100552.72;;;11.12
67599;BMP280;62026;39.230;9.122;2023-02-28T11:53:17;100535.13;;;11.24
67599;BMP280;62026;39.230;9.122;2023-02-28T12:00:05;100522.38;;;11.21
67599;BMP280;62026;39.230;9.122;2023-02-28T12:17:59;100483.06;;;11.31
67599;BMP280;62026;39.230;9.122;2023-02-28T12:23:52;100492.41;;;11.33
67599;BMP280;62026;39.230;9.122;2023-02-28T12:26:43;100484.69;;;11.32
67599;BMP280;62026;39.230;9.122;2023-02-28T12:29:20;100471.69;;;11.30
67599;BMP280;62026;39.230;9.122;2023-02-28T12:32:26;100472.22;;;11.39
67599;BMP280;62026;39.230;9.122;2023-02-28T12:35:19;100472.38;;;11.26
67599;BMP280;62026;39.230;9.122;2023-02-28T12:38:02;100470.44;;;11.33
67599;BMP280;62026;39.230;9.122;2023-02-28T12:40:44;100468.44;;;11.28
67599;BMP280;62026;39.230;9.122;2023-02-28T12:43:16;100468.75;;;11.38
67599;BMP280;62026;39.230;9.122;2023-02-28T12:45:47;100468.81;;;11.32
67599;BMP280;62026;39.230;9.122;2023-02-28T12:48:33;100462.50;;;11.33
67599;BMP280;62026;39.230;9.122;2023-02-28T12:51:07;100452.22;;;11.25
67599;BMP280;62026;39.230;9.122;2023-02-28T13:00:00;100458.75;;;11.22
67599;BMP280;62026;39.230;9.122;2023-02-28T13:10:47;100439.56;;;11.33
67599;BMP280;62026;39.230;9.122;2023-02-28T13:13:26;100447.41;;;11.40
67599;BMP280;62026;39.230;9.122;2023-02-28T13:16:09;100452.53;;;11.35
67599;BMP280;62026;39.230;9.122;2023-02-28T13:18:44;100446.06;;;11.31
67599;BMP280;62026;39.230;9.122;2023-02-28T13:21:29;100455.56;;;11.38
67599;BMP280;62026;39.230;9.122;2023-02-28T13:23:59;100444.75;;;11.40
67599;BMP280;62026;39.230;9.122;2023-02-28T13:34:41;100479.38;;;11.32
67599;BMP280;62026;39.230;9.122;2023-02-28T13:48:15;100453.00;;;10.82
67599;BMP280;62026;39.230;9.122;2023-02-28T13:50:43;100456.28;;;10.77
67599;BMP280;62026;39.230;9.122;2023-02-28T13:56:07;100457.34;;;10.95
67599;BMP280;62026;39.230;9.122;2023-02-28T14:01:37;100465.34;;;10.88
67599;BMP280;62026;39.230;9.122;2023-02-28T14:07:27;100463.84;;;10.99
67599;BMP280;62026;39.230;9.122;2023-02-28T14:10:08;100458.91;;;11.02
67599;BMP280;62026;39.230;9.122;2023-02-28T14:18:19;100450.00;;;11.03
67599;BMP280;62026;39.230;9.122;2023-02-28T14:20:48;100456.06;;;11.04
67599;BMP280;62026;39.230;9.122;2023-02-28T14:23:59;100453.81;;;11.07
67599;BMP280;62026;39.230;9.122;2023-02-28T14:29:51;100466.81;;;11.02
67599;BMP280;62026;39.230;9.122;2023-02-28T14:32:58;100466.09;;;10.95
67599;BMP280;62026;39.230;9.122;2023-02-28T14:38:38;100469.34;;;10.97
67599;BMP280;62026;39.230;9.122;2023-02-28T14:41:20;100480.50;;;10.99
67599;BMP280;62026;39.230;9.122;2023-02-28T14:44:01;100477.25;;;10.97
67599;BMP280;62026;39.230;9.122;2023-02-28T14:46:38;100476.66;;;10.95
67599;BMP280;62026;39.230;9.122;2023-02-28T14:49:11;100481.34;;;10.93
67599;BMP280;62026;39.230;9.122;2023-02-28T14:51:38;100473.16;;;10.76
67599;BMP280;62026;39.230;9.122;2023-02-28T14:54:05;100462.03;;;10.68
67599;BMP280;62026;39.230;9.122;2023-02-28T14:56:38;100465.72;;;10.67
67599;BMP280;62026;39.230;9.122;2023-02-28T14:59:23;100466.81;;;10.53
67599;BMP280;62026;39.230;9.122;2023-02-28T15:01:49;100471.09;;;10.47
67599;BMP280;62026;39.230;9.122;2023-02-28T15:04:26;100465.84;;;10.40
67599;BMP280;62026;39.230;9.122;2023-02-28T15:07:14;100466.50;;;10.36
67599;BMP280;62026;39.230;9.122;2023-02-28T15:09:40;100470.78;;;10.37
67599;BMP280;62026;39.230;9.122;2023-02-28T15:12:07;100459.97;;;10.38
67599;BMP280;62026;39.230;9.122;2023-02-28T15:14:36;100457.53;;;10.43
67599;BMP280;62026;39.230;9.122;2023-02-28T15:17:13;100462.00;;;10.43
67599;BMP280;62026;39.230;9.122;2023-02-28T15:19:43;100475.56;;;10.46
67599;BMP280;62026;39.230;9.122;2023-02-28T15:22:20;100463.75;;;10.49
67599;BMP280;62026;39.230;9.122;2023-02-28T15:24:51;100464.19;;;10.53
67599;BMP280;62026;39.230;9.122;2023-02-28T15:27:25;100465.34;;;10.57
67599;BMP280;62026;39.230;9.122;2023-02-28T15:29:59;100469.47;;;10.53
67599;BMP280;62026;39.230;9.122;2023-02-28T15:32:33;100469.00;;;10.56
67599;BMP280;62026;39.230;9.122;2023-02-28T15:38:25;100472.25;;;10.58
67599;BMP280;62026;39.230;9.122;2023-02-28T15:40:57;100460.06;;;10.57
67599;BMP280;62026;39.230;9.122;2023-02-28T15:46:09;100468.59;;;10.59
67599;BMP280;62026;39.230;9.122;2023-02-28T15:48:38;100469.00;;;10.56
67599;BMP280;62026;39.230;9.122;2023-02-28T15:53:54;100455.25;;;10.54
67599;BMP280;62026;39.230;9.122;2023-02-28T15:56:31;100460.53;;;10.54
67599;BMP280;62026;39.230;9.122;2023-02-28T15:59:05;100450.75;;;10.54
67599;BMP280;62026;39.230;9.122;2023-02-28T16:01:37;100458.31;;;10.51
67599;BMP280;62026;39.230;9.122;2023-02-28T16:04:11;100456.81;;;10.55
67599;BMP280;62026;39.230;9.122;2023-02-28T16:06:45;100461.53;;;10.53
67599;BMP280;62026;39.230;9.122;2023-02-28T16:09:15;100462.69;;;10.57
67599;BMP280;62026;39.230;9.122;2023-02-28T16:11:50;100468.59;;;10.59
67599;BMP280;62026;39.230;9.122;2023-02-28T16:14:25;100453.16;;;10.56
67599;BMP280;62026;39.230;9.122;2023-02-28T16:16:57;100460.28;;;10.55
67599;BMP280;62026;39.230;9.122;2023-02-28T16:19:27;100460.53;;;10.54
67599;BMP280;62026;39.230;9.122;2023-02-28T16:21:53;100465.59;;;10.49
67599;BMP280;62026;39.230;9.122;2023-02-28T16:24:19;100461.09;;;10.56
67599;BMP280;62026;39.230;9.122;2023-02-28T16:26:48;100464.69;;;10.36
67599;BMP280;62026;39.230;9.122;2023-02-28T16:29:29;100457.41;;;10.25
67599;BMP280;62026;39.230;9.122;2023-02-28T16:31:56;100456.56;;;10.31
67599;BMP280;62026;39.230;9.122;2023-02-28T16:34:23;100457.03;;;10.28
67599;BMP280;62026;39.230;9.122;2023-02-28T16:36:50;100454.41;;;10.15
67599;BMP280;62026;39.230;9.122;2023-02-28T16:39:16;100454.19;;;10.23
67599;BMP280;62026;39.230;9.122;2023-02-28T16:41:45;100451.75;;;10.28
67599;BMP280;62026;39.230;9.122;2023-02-28T16:44:29;100449.50;;;10.25
67599;BMP280;62026;39.230;9.122;2023-02-28T16:46:56;100454.63;;;10.20
67599;BMP280;62026;39.230;9.122;2023-02-28T16:49:22;100455.03;;;10.17
67599;BMP280;62026;39.230;9.122;2023-02-28T16:51:48;100461.56;;;10.08
67599;BMP280;62026;39.230;9.122;2023-02-28T16:54:14;100456.22;;;10.28
67599;BMP280;62026;39.230;9.122;2023-02-28T16:56:45;100451.28;;;10.31
67599;BMP280;62026;39.230;9.122;2023-02-28T16:59:13;100460.69;;;10.27
67599;BMP280;62026;39.230;9.122;2023-02-28T17:01:40;100462.31;;;10.22
67599;BMP280;62026;39.230;9.122;2023-02-28T17:04:10;100461.28;;;10.23
67599;BMP280;62026;39.230;9.122;2023-02-28T17:06:37;100465.94;;;10.27
67599;BMP280;62026;39.230;9.122;2023-02-28T17:09:03;100472.03;;;10.21
67599;BMP280;62026;39.230;9.122;2023-02-28T17:11:29;100469.16;;;10.29
67599;BMP280;62026;39.230;9.122;2023-02-28T17:13:56;100464.47;;;10.31